パリ/シャルル・ド・ゴール の空港の天気 - METARとTAF

シャルル・ド・ゴール国際空港(パリ) ( LFPG / CDG ) - フランス Paris
飛行場実況気象(Metar)
観測時間11/17 01:00 CET (11/17 00:00 UTC)
風向・風速北東 3m/s
視程3000m
天気現象もや
なし
気温3℃
湿度100%
気圧1025hPa
METARLFPG 170000Z 05006KT 3000 BR NSC 03/03 Q1025 NOSIG
過去の天気等 Google飛行場航空写真 Wunderground天気予報

過去48時間のMETAR

飛行場予報(TAF)
発表時間: 11/17 00:00 CET (11/16 23:00 UTC)
予報対象時間: 17日1時 CET ~ 18日7時 CET
風向・風速北東 3m/s
視程3000m
天気現象もや
なし
17日2時 CET ~ 17日8時 CET に 確率 30% で一時的に
視程500m
天気現象散在した霧
全天の4割程度の雲 雲底高度 30m
17日9時 CET ~ 17日11時 CET に徐々に
視程10km以上
なし
TAF LFPG 162300Z 1700/1806 05005KT 3000 BR NSC TX08/1713Z TN01/1805Z
PROB30 TEMPO 1701/1707 0500 BCFG SCT001
BECMG 1708/1710 CAVOK